createdAt,value
2017-09-23T00:01:08.007Z,10.80
2017-09-23T00:03:36.134Z,10.80
2017-09-23T00:06:05.024Z,10.60
2017-09-23T00:08:33.137Z,10.60
2017-09-23T00:11:01.233Z,10.50
2017-09-23T00:13:29.374Z,10.30
2017-09-23T00:15:57.460Z,10.40
2017-09-23T00:18:25.625Z,10.40
2017-09-23T00:20:54.727Z,10.40
2017-09-23T00:23:22.815Z,10.40
2017-09-23T00:25:51.707Z,10.60
2017-09-23T00:28:19.999Z,10.50
2017-09-23T00:30:48.188Z,10.80
2017-09-23T00:33:16.311Z,10.80
2017-09-23T00:35:45.473Z,10.60
2017-09-23T00:38:13.693Z,10.50
2017-09-23T00:40:42.630Z,10.30
2017-09-23T00:43:11.530Z,10.10
2017-09-23T00:45:39.638Z,10.10
2017-09-23T00:48:07.748Z,10.00
2017-09-23T00:50:36.157Z,10.00
2017-09-23T00:53:04.293Z,10.10
2017-09-23T00:55:32.420Z,10.00
2017-09-23T00:58:00.506Z,9.90
2017-09-23T01:00:28.587Z,9.70
2017-09-23T01:02:56.813Z,9.50
2017-09-23T01:05:24.916Z,9.40
2017-09-23T01:07:53.808Z,9.40
2017-09-23T01:10:23.007Z,9.40
2017-09-23T01:12:51.185Z,9.30
2017-09-23T01:15:19.669Z,9.40
2017-09-23T01:17:47.787Z,9.20
2017-09-23T01:20:16.688Z,9.00
2017-09-23T01:22:44.898Z,9.00
2017-09-23T01:25:13.035Z,9.10
2017-09-23T01:27:41.230Z,9.00
2017-09-23T01:30:09.343Z,8.90
2017-09-23T01:32:37.488Z,9.00
2017-09-23T01:35:07.157Z,9.10
2017-09-23T01:37:35.287Z,9.10
2017-09-23T01:40:03.515Z,9.20
2017-09-23T01:42:31.734Z,9.30
2017-09-23T01:44:59.813Z,9.30
2017-09-23T01:47:28.039Z,9.30
2017-09-23T01:49:56.911Z,9.30
2017-09-23T01:52:24.998Z,9.30
2017-09-23T01:54:53.219Z,9.40
2017-09-23T01:57:21.309Z,9.40
2017-09-23T01:59:50.968Z,9.50
2017-09-23T02:02:19.075Z,9.50
2017-09-23T02:04:47.194Z,9.40
2017-09-23T02:07:15.436Z,9.30
2017-09-23T02:09:43.540Z,9.40
2017-09-23T02:12:11.704Z,9.50
2017-09-23T02:14:39.787Z,9.40
2017-09-23T02:17:07.948Z,9.30
2017-09-23T02:19:36.052Z,9.40
2017-09-23T02:22:04.162Z,9.50
2017-09-23T02:24:32.568Z,9.50
2017-09-23T02:27:00.671Z,9.50
2017-09-23T02:29:28.793Z,9.50
2017-09-23T02:31:56.915Z,9.50
2017-09-23T02:34:25.023Z,9.60
2017-09-23T02:36:53.912Z,9.70
2017-09-23T02:39:22.795Z,9.70
2017-09-23T02:41:51.031Z,9.60
2017-09-23T02:44:19.154Z,9.70
2017-09-23T02:46:47.440Z,9.70
2017-09-23T02:49:16.358Z,9.50
2017-09-23T02:51:44.473Z,9.40
2017-09-23T02:54:13.373Z,9.30
2017-09-23T02:56:41.494Z,9.20
2017-09-23T02:59:09.600Z,9.20
2017-09-23T03:01:37.744Z,9.20
2017-09-23T03:04:05.879Z,9.10
2017-09-23T03:06:34.043Z,9.00
2017-09-23T03:09:02.269Z,8.80
2017-09-23T03:11:30.374Z,8.80
2017-09-23T03:13:58.559Z,8.90
2017-09-23T03:16:26.682Z,8.80
2017-09-23T03:18:54.809Z,8.90
2017-09-23T03:21:23.399Z,8.80
2017-09-23T03:23:51.534Z,8.70
2017-09-23T03:26:19.776Z,8.70
2017-09-23T03:28:47.879Z,8.80
2017-09-23T03:31:16.006Z,9.00
2017-09-23T03:33:44.164Z,9.10
2017-09-23T03:36:12.459Z,9.20
2017-09-23T03:38:41.066Z,9.10
2017-09-23T03:41:09.198Z,9.20
2017-09-23T03:43:38.073Z,9.30
2017-09-23T03:46:06.231Z,9.30
2017-09-23T03:48:34.345Z,9.40
2017-09-23T03:51:03.279Z,9.10
2017-09-23T03:53:32.546Z,9.00
2017-09-23T03:56:00.690Z,8.90
2017-09-23T03:58:28.835Z,8.90
2017-09-23T04:00:57.073Z,8.80
2017-09-23T04:03:25.220Z,8.90
2017-09-23T04:05:53.314Z,9.00
2017-09-23T04:08:21.442Z,9.10
2017-09-23T04:10:49.546Z,9.20
2017-09-23T04:13:17.733Z,9.20
2017-09-23T04:15:45.868Z,9.10
2017-09-23T04:18:14.094Z,9.10
2017-09-23T04:20:42.194Z,9.00
2017-09-23T04:23:10.317Z,9.00
2017-09-23T04:25:38.477Z,8.80
2017-09-23T04:28:06.745Z,8.50
2017-09-23T04:30:34.906Z,8.40
2017-09-23T04:33:03.026Z,8.40
2017-09-23T04:35:31.180Z,8.30
2017-09-23T04:37:59.470Z,8.20
2017-09-23T04:40:27.595Z,8.10
2017-09-23T04:42:55.825Z,8.10
2017-09-23T04:45:25.723Z,8.00
2017-09-23T04:47:53.825Z,8.00
2017-09-23T04:50:21.967Z,8.10
2017-09-23T04:52:50.877Z,8.10
2017-09-23T04:55:18.992Z,8.00
2017-09-23T04:57:47.127Z,8.10
2017-09-23T05:00:15.297Z,8.10
2017-09-23T05:02:43.481Z,8.00
2017-09-23T05:05:11.577Z,7.90
2017-09-23T05:07:39.690Z,7.80
2017-09-23T05:10:07.804Z,7.80
2017-09-23T05:12:35.889Z,7.90
2017-09-23T05:15:04.035Z,7.80
2017-09-23T05:17:32.178Z,7.80
2017-09-23T05:20:00.303Z,7.70
2017-09-23T05:22:28.399Z,7.80
2017-09-23T05:24:58.053Z,7.70
2017-09-23T05:27:26.935Z,7.90
2017-09-23T05:29:55.051Z,7.80
2017-09-23T05:32:23.125Z,7.90
2017-09-23T05:34:51.280Z,7.80
2017-09-23T05:37:19.417Z,7.70
2017-09-23T05:39:47.553Z,7.60
2017-09-23T05:42:16.457Z,7.60
2017-09-23T05:44:45.014Z,7.50
2017-09-23T05:47:13.236Z,7.80
2017-09-23T05:49:42.126Z,8.30
2017-09-23T05:52:10.246Z,8.20
2017-09-23T05:54:38.341Z,8.60
2017-09-23T05:57:08.599Z,8.90
2017-09-23T05:59:36.741Z,9.00
2017-09-23T06:02:04.860Z,9.10
2017-09-23T06:04:32.974Z,9.20
2017-09-23T06:07:01.125Z,9.40
2017-09-23T06:09:29.254Z,9.20
2017-09-23T06:11:57.579Z,9.20
2017-09-23T06:14:25.761Z,9.50
2017-09-23T06:16:54.819Z,9.80
2017-09-23T06:19:23.031Z,10.10
2017-09-23T06:21:51.149Z,10.20
2017-09-23T06:24:19.257Z,10.50
2017-09-23T06:26:48.260Z,10.80
2017-09-23T06:29:16.434Z,11.00
2017-09-23T06:31:44.559Z,11.40
2017-09-23T06:34:13.587Z,11.80
2017-09-23T06:36:41.795Z,11.80
2017-09-23T06:39:09.939Z,12.00
2017-09-23T06:41:38.271Z,12.20
2017-09-23T06:44:11.118Z,12.30
2017-09-23T06:46:39.304Z,12.40
2017-09-23T06:49:07.444Z,12.60
2017-09-23T06:51:35.615Z,12.90
2017-09-23T06:54:03.737Z,13.20
2017-09-23T06:56:31.881Z,13.60
2017-09-23T06:59:00.041Z,13.80
2017-09-23T07:01:28.206Z,13.80
2017-09-23T07:03:57.120Z,14.30
2017-09-23T07:06:25.292Z,14.30
2017-09-23T07:08:55.310Z,14.60
2017-09-23T07:11:23.469Z,15.00
2017-09-23T07:13:51.594Z,15.30
2017-09-23T07:16:19.687Z,15.60
2017-09-23T07:18:47.814Z,15.90
2017-09-23T07:21:16.693Z,16.30
2017-09-23T07:23:44.864Z,16.20
2017-09-23T07:26:12.984Z,16.50
2017-09-23T07:28:41.802Z,16.70
2017-09-23T07:31:10.077Z,16.80
2017-09-23T07:33:38.178Z,17.00
2017-09-23T07:36:07.079Z,17.60
2017-09-23T07:38:35.853Z,17.50
2017-09-23T07:41:04.005Z,17.90
2017-09-23T07:43:32.141Z,17.90
2017-09-23T07:46:00.300Z,18.30
2017-09-23T07:48:28.424Z,18.50
2017-09-23T07:50:56.596Z,18.80
2017-09-23T07:53:24.723Z,18.90
2017-09-23T07:55:52.873Z,18.60
2017-09-23T07:58:20.977Z,18.20
2017-09-23T08:00:49.096Z,17.90
2017-09-23T08:03:17.289Z,17.40
2017-09-23T08:05:45.395Z,17.10
2017-09-23T08:08:13.544Z,16.90
2017-09-23T08:10:41.659Z,17.40
2017-09-23T08:13:09.794Z,17.60
2017-09-23T08:15:37.901Z,17.70
2017-09-23T08:18:06.024Z,17.70
2017-09-23T08:20:34.202Z,17.50
2017-09-23T08:23:02.334Z,17.00
2017-09-23T08:25:31.965Z,16.50
2017-09-23T08:28:00.084Z,16.50
2017-09-23T08:30:28.222Z,16.40
2017-09-23T08:32:57.184Z,15.70
2017-09-23T08:35:25.392Z,15.60
2017-09-23T08:37:54.281Z,15.40
2017-09-23T08:40:22.418Z,15.40
2017-09-23T08:42:50.554Z,15.30
2017-09-23T08:45:19.528Z,15.20
2017-09-23T08:47:47.653Z,15.20
2017-09-23T08:50:15.781Z,15.20
2017-09-23T08:52:43.926Z,15.10
2017-09-23T08:55:11.993Z,15.00
2017-09-23T08:57:40.158Z,15.10
2017-09-23T09:00:09.108Z,15.10
2017-09-23T09:02:37.290Z,15.00
2017-09-23T09:05:06.198Z,14.90
2017-09-23T09:07:34.354Z,14.90
2017-09-23T09:10:02.574Z,14.90
2017-09-23T09:12:32.004Z,15.00
2017-09-23T09:15:00.188Z,14.90
2017-09-23T09:17:29.116Z,15.30
2017-09-23T09:19:57.349Z,15.20
2017-09-23T09:22:25.594Z,15.20
2017-09-23T09:24:53.704Z,15.20
2017-09-23T09:27:21.859Z,15.20
2017-09-23T09:29:50.801Z,15.20
2017-09-23T09:32:19.162Z,15.20
2017-09-23T09:34:47.332Z,15.10
2017-09-23T09:37:15.468Z,15.20
2017-09-23T09:39:43.717Z,15.40
2017-09-23T09:42:13.384Z,15.80
2017-09-23T09:44:41.514Z,15.80
2017-09-23T09:47:11.139Z,16.30
2017-09-23T09:49:39.290Z,16.30
2017-09-23T09:52:07.546Z,16.70
2017-09-23T09:54:35.672Z,17.20
2017-09-23T09:57:03.825Z,17.50
2017-09-23T09:59:31.956Z,17.60
2017-09-23T10:02:00.850Z,17.40
2017-09-23T10:04:29.001Z,17.30
2017-09-23T10:06:57.111Z,17.50
2017-09-23T10:09:25.284Z,17.80
2017-09-23T10:11:53.394Z,18.70
2017-09-23T10:14:21.539Z,19.10
2017-09-23T10:16:49.659Z,19.60
2017-09-23T10:19:17.830Z,19.60
2017-09-23T10:21:45.967Z,18.90
2017-09-23T10:24:14.163Z,18.50
2017-09-23T10:26:43.054Z,18.30
2017-09-23T10:29:11.241Z,18.30
2017-09-23T10:31:39.406Z,18.40
2017-09-23T10:34:07.516Z,18.30
2017-09-23T10:36:35.638Z,18.60
2017-09-23T10:39:03.999Z,19.10
2017-09-23T10:41:32.116Z,19.40
2017-09-23T10:44:00.226Z,20.00
2017-09-23T10:46:28.345Z,20.70
2017-09-23T10:48:56.473Z,21.10
2017-09-23T10:51:24.688Z,21.40
2017-09-23T10:53:52.821Z,21.40
2017-09-23T10:56:21.038Z,21.50
2017-09-23T10:58:49.212Z,21.00
2017-09-23T11:01:17.393Z,20.80
2017-09-23T11:03:45.558Z,20.70
2017-09-23T11:06:13.670Z,20.70
2017-09-23T11:08:41.770Z,21.00
2017-09-23T11:11:09.906Z,21.40
2017-09-23T11:13:38.047Z,21.70
2017-09-23T11:16:06.160Z,22.30
2017-09-23T11:18:34.299Z,22.00
2017-09-23T11:21:02.446Z,21.90
2017-09-23T11:23:30.626Z,22.00
2017-09-23T11:25:58.787Z,22.40
2017-09-23T11:28:27.188Z,22.40
2017-09-23T11:30:55.312Z,22.40
2017-09-23T11:33:23.470Z,22.20
2017-09-23T11:35:51.616Z,22.50
2017-09-23T11:38:19.768Z,23.00
2017-09-23T11:40:47.896Z,23.10
2017-09-23T11:43:16.024Z,22.70
2017-09-23T11:45:44.888Z,22.50
2017-09-23T11:48:13.003Z,22.50
2017-09-23T11:50:41.118Z,22.40
2017-09-23T11:53:09.238Z,22.40
2017-09-23T11:55:37.364Z,22.40
2017-09-23T11:58:05.524Z,22.50
2017-09-23T12:00:33.606Z,22.50
2017-09-23T12:03:01.747Z,22.20
2017-09-23T12:05:30.644Z,21.50
2017-09-23T12:07:58.743Z,21.40
2017-09-23T12:10:27.631Z,21.70
2017-09-23T12:12:55.768Z,21.60
2017-09-23T12:15:23.854Z,21.50
2017-09-23T12:17:52.023Z,21.70
2017-09-23T12:20:20.130Z,21.90
2017-09-23T12:22:49.080Z,22.30
2017-09-23T12:25:17.173Z,22.30
2017-09-23T12:27:45.274Z,22.40
2017-09-23T12:30:14.139Z,22.70
2017-09-23T12:32:42.321Z,22.60
2017-09-23T12:35:10.433Z,22.60
2017-09-23T12:37:38.608Z,22.80
2017-09-23T12:40:06.719Z,22.90
2017-09-23T12:42:35.586Z,22.70
2017-09-23T12:45:03.786Z,22.70
2017-09-23T12:47:31.886Z,22.70
2017-09-23T12:50:00.028Z,22.50
2017-09-23T12:52:28.181Z,22.70
2017-09-23T12:54:56.599Z,22.70
2017-09-23T12:57:24.669Z,22.60
2017-09-23T12:59:52.808Z,22.50
2017-09-23T13:02:20.932Z,22.40
2017-09-23T13:04:49.048Z,22.20
2017-09-23T13:07:17.159Z,22.30
2017-09-23T13:09:45.260Z,22.50
2017-09-23T13:12:14.166Z,22.40
2017-09-23T13:14:42.272Z,22.30
2017-09-23T13:17:10.452Z,22.20
2017-09-23T13:19:38.569Z,22.00
2017-09-23T13:22:06.699Z,21.70
2017-09-23T13:24:34.813Z,21.60
2017-09-23T13:27:03.004Z,21.70
2017-09-23T13:29:31.178Z,21.60
2017-09-23T13:32:00.072Z,21.20
2017-09-23T13:34:28.144Z,21.20
2017-09-23T13:36:56.245Z,21.20
2017-09-23T13:39:24.375Z,21.10
2017-09-23T13:41:52.491Z,21.30
2017-09-23T13:44:20.603Z,21.30
2017-09-23T13:46:48.733Z,21.20
2017-09-23T13:49:16.863Z,20.90
2017-09-23T13:51:44.959Z,20.50
2017-09-23T13:54:15.713Z,20.30
2017-09-23T13:56:43.798Z,20.00
2017-09-23T13:59:13.603Z,19.30
2017-09-23T14:01:41.689Z,19.30
2017-09-23T14:04:09.787Z,19.40
2017-09-23T14:06:37.886Z,19.50
2017-09-23T14:09:05.970Z,19.80
2017-09-23T14:11:34.065Z,20.10
2017-09-23T14:14:02.204Z,20.20
2017-09-23T14:16:30.313Z,20.20
2017-09-23T14:18:59.211Z,19.70
2017-09-23T14:21:28.082Z,19.90
2017-09-23T14:23:57.682Z,20.10
2017-09-23T14:26:25.833Z,20.10
2017-09-23T14:28:53.916Z,19.80
2017-09-23T14:31:22.205Z,19.80
2017-09-23T14:33:51.077Z,19.50
2017-09-23T14:36:19.179Z,19.50
2017-09-23T14:38:47.446Z,19.40
2017-09-23T14:41:15.533Z,19.00
2017-09-23T14:43:44.436Z,18.60
2017-09-23T14:46:12.535Z,18.60
2017-09-23T14:48:40.658Z,18.40
2017-09-23T14:51:08.792Z,18.30
2017-09-23T14:53:36.902Z,18.10
2017-09-23T14:56:05.018Z,17.90
2017-09-23T14:58:33.147Z,17.90
2017-09-23T15:01:01.288Z,17.80
2017-09-23T15:03:30.177Z,17.50
2017-09-23T15:05:58.534Z,17.50
2017-09-23T15:08:26.674Z,17.40
2017-09-23T15:10:54.839Z,17.20
2017-09-23T15:13:22.954Z,17.10
2017-09-23T15:15:51.212Z,17.10
2017-09-23T15:18:19.328Z,17.10
2017-09-23T15:20:47.701Z,17.10
2017-09-23T15:23:16.051Z,17.00
2017-09-23T15:25:44.931Z,17.00
2017-09-23T15:28:13.041Z,16.90
2017-09-23T15:30:42.530Z,16.90
2017-09-23T15:33:10.702Z,16.90
2017-09-23T15:35:38.823Z,16.90
2017-09-23T15:38:07.036Z,16.70
2017-09-23T15:40:35.167Z,16.70
2017-09-23T15:43:03.291Z,16.80
2017-09-23T15:45:31.417Z,16.90
2017-09-23T15:47:59.631Z,16.80
2017-09-23T15:50:27.829Z,16.80
2017-09-23T15:52:55.930Z,16.80
2017-09-23T15:55:24.077Z,16.80
2017-09-23T15:57:52.195Z,16.70
2017-09-23T16:00:20.380Z,16.80
2017-09-23T16:02:48.494Z,16.70
2017-09-23T16:05:16.616Z,16.60
2017-09-23T16:07:44.741Z,16.60
2017-09-23T16:10:12.856Z,16.50
2017-09-23T16:12:40.953Z,16.60
2017-09-23T16:15:09.142Z,16.60
2017-09-23T16:17:37.290Z,16.40
2017-09-23T16:20:05.395Z,16.50
2017-09-23T16:22:33.630Z,16.40
2017-09-23T16:25:01.725Z,16.40
2017-09-23T16:27:29.851Z,16.40
2017-09-23T16:29:57.936Z,16.40
2017-09-23T16:32:26.848Z,16.30
2017-09-23T16:34:55.737Z,16.40
2017-09-23T16:37:23.843Z,16.30
2017-09-23T16:39:51.974Z,16.40
2017-09-23T16:42:20.625Z,16.40
2017-09-23T16:44:49.487Z,16.30
2017-09-23T16:47:17.620Z,16.30
2017-09-23T16:49:45.713Z,16.20
2017-09-23T16:52:14.605Z,16.20
2017-09-23T16:54:42.726Z,16.10
2017-09-23T16:57:10.817Z,16.10
2017-09-23T16:59:39.664Z,16.20
2017-09-23T17:02:07.810Z,16.20
2017-09-23T17:04:35.931Z,16.20
2017-09-23T17:07:04.013Z,16.30
2017-09-23T17:09:32.191Z,16.20
2017-09-23T17:12:00.321Z,16.20
2017-09-23T17:14:28.419Z,16.20
2017-09-23T17:16:56.606Z,16.10
2017-09-23T17:19:24.737Z,16.10
2017-09-23T17:21:52.822Z,16.20
2017-09-23T17:24:20.920Z,16.10
2017-09-23T17:26:49.039Z,16.10
2017-09-23T17:29:17.163Z,16.20
2017-09-23T17:31:45.298Z,16.10
2017-09-23T17:34:14.221Z,16.00
2017-09-23T17:36:42.360Z,16.00
2017-09-23T17:39:10.480Z,16.00
2017-09-23T17:41:38.603Z,16.10
2017-09-23T17:44:07.576Z,16.10
2017-09-23T17:46:35.684Z,16.00
2017-09-23T17:49:03.796Z,16.10
2017-09-23T17:51:32.732Z,16.10
2017-09-23T17:54:00.839Z,16.00
2017-09-23T17:56:29.713Z,16.10
2017-09-23T17:58:57.826Z,16.10
2017-09-23T18:01:25.927Z,16.10
2017-09-23T18:03:54.035Z,16.10
2017-09-23T18:06:22.186Z,16.10
2017-09-23T18:08:51.088Z,16.10
2017-09-23T18:11:19.246Z,16.00
2017-09-23T18:13:47.350Z,16.10
2017-09-23T18:16:15.450Z,16.10
2017-09-23T18:18:43.577Z,16.10
2017-09-23T18:21:11.771Z,16.10
2017-09-23T18:23:39.915Z,16.10
2017-09-23T18:26:08.017Z,16.10
2017-09-23T18:28:36.910Z,16.10
2017-09-23T18:31:05.060Z,16.00
2017-09-23T18:33:33.266Z,16.00
2017-09-23T18:36:01.420Z,16.00
2017-09-23T18:38:29.582Z,16.10
2017-09-23T18:40:57.734Z,16.10
2017-09-23T18:43:25.913Z,16.10
2017-09-23T18:45:54.033Z,16.10
2017-09-23T18:48:22.165Z,16.00
2017-09-23T18:50:50.278Z,16.00
2017-09-23T18:53:19.255Z,16.00
2017-09-23T18:55:47.398Z,15.90
2017-09-23T18:58:15.563Z,16.00
2017-09-23T19:00:43.666Z,16.00
2017-09-23T19:03:12.893Z,16.00
2017-09-23T19:05:41.042Z,16.00
2017-09-23T19:08:09.146Z,16.10
2017-09-23T19:10:37.272Z,16.10
2017-09-23T19:13:05.399Z,16.00
2017-09-23T19:15:33.534Z,16.00
2017-09-23T19:18:02.440Z,16.00
2017-09-23T19:20:30.565Z,16.00
2017-09-23T19:22:58.720Z,15.90
2017-09-23T19:25:26.923Z,16.00
2017-09-23T19:27:55.816Z,15.90
2017-09-23T19:30:23.947Z,15.90
2017-09-23T19:32:52.863Z,15.90
2017-09-23T19:35:21.017Z,15.90
2017-09-23T19:37:49.290Z,16.00
2017-09-23T19:40:17.428Z,16.00
2017-09-23T19:42:46.285Z,15.90
2017-09-23T19:45:14.891Z,15.90
2017-09-23T19:47:43.035Z,15.90
2017-09-23T19:50:11.139Z,15.80
2017-09-23T19:52:39.272Z,15.90
2017-09-23T19:55:07.391Z,15.90
2017-09-23T19:57:36.270Z,15.80
2017-09-23T20:00:04.394Z,15.80
2017-09-23T20:02:32.557Z,15.80
2017-09-23T20:05:01.423Z,15.90
2017-09-23T20:07:29.580Z,15.80
2017-09-23T20:09:58.482Z,15.90
2017-09-23T20:12:26.589Z,15.80
2017-09-23T20:14:54.689Z,15.80
2017-09-23T20:19:57.120Z,15.70
2017-09-23T20:22:25.278Z,15.70
2017-09-23T20:24:54.188Z,15.60
2017-09-23T20:27:23.077Z,15.60
2017-09-23T20:29:51.203Z,15.60
2017-09-23T20:32:19.321Z,15.60
2017-09-23T20:34:47.648Z,15.60
2017-09-23T20:37:15.859Z,15.60
2017-09-23T20:39:43.990Z,15.50
2017-09-23T20:42:12.128Z,15.70
2017-09-23T20:44:40.230Z,15.70
2017-09-23T20:47:08.417Z,15.60
2017-09-23T20:49:37.101Z,15.60
2017-09-23T20:52:05.374Z,15.60
2017-09-23T20:54:33.508Z,15.50
2017-09-23T20:57:02.446Z,15.50
2017-09-23T20:59:30.609Z,15.40
2017-09-23T21:01:59.512Z,15.40
2017-09-23T21:04:29.044Z,15.40
2017-09-23T21:06:57.150Z,15.40
2017-09-23T21:09:25.276Z,15.50
2017-09-23T21:11:53.383Z,15.60
2017-09-23T21:14:21.605Z,15.60
2017-09-23T21:16:49.780Z,15.50
2017-09-23T21:19:18.014Z,15.50
2017-09-23T21:21:46.103Z,15.40
2017-09-23T21:24:15.075Z,15.50
2017-09-23T21:26:43.232Z,15.40
2017-09-23T21:29:11.371Z,15.40
2017-09-23T21:31:39.519Z,15.40
2017-09-23T21:34:07.650Z,15.40
2017-09-23T21:36:35.777Z,15.40
2017-09-23T21:39:03.895Z,15.40
2017-09-23T21:41:32.066Z,15.40
2017-09-23T21:44:00.646Z,15.40
2017-09-23T21:46:28.762Z,15.40
2017-09-23T21:48:56.987Z,15.40
2017-09-23T21:51:25.138Z,15.50
2017-09-23T21:53:53.287Z,15.60
2017-09-23T21:56:22.176Z,15.60
2017-09-23T21:58:51.050Z,15.60
2017-09-23T22:01:19.183Z,15.60
2017-09-23T22:03:47.319Z,15.70
2017-09-23T22:06:15.686Z,15.70
2017-09-23T22:08:43.893Z,15.80
2017-09-23T22:11:12.024Z,15.80
2017-09-23T22:13:40.177Z,15.80
2017-09-23T22:16:08.355Z,15.90
2017-09-23T22:18:37.255Z,15.90
2017-09-23T22:21:05.455Z,15.80
2017-09-23T22:23:33.569Z,15.90
2017-09-23T22:26:01.712Z,15.90
2017-09-23T22:28:29.831Z,15.90
2017-09-23T22:30:57.959Z,15.90
2017-09-23T22:33:26.110Z,15.90
2017-09-23T22:35:55.004Z,15.90
2017-09-23T22:38:23.134Z,15.90
2017-09-23T22:40:51.226Z,15.80
2017-09-23T22:43:19.358Z,15.80
2017-09-23T22:45:48.458Z,15.70
2017-09-23T22:48:16.617Z,15.70
2017-09-23T22:50:45.499Z,15.70
2017-09-23T22:53:13.649Z,15.70
2017-09-23T22:55:41.786Z,15.80
2017-09-23T22:58:10.116Z,15.80
2017-09-23T23:00:38.255Z,15.80
2017-09-23T23:03:06.386Z,15.70
2017-09-23T23:05:34.615Z,15.70
2017-09-23T23:08:03.521Z,15.60
2017-09-23T23:10:32.409Z,15.60
2017-09-23T23:13:00.523Z,15.60
2017-09-23T23:15:28.649Z,15.60
2017-09-23T23:17:56.818Z,15.60
2017-09-23T23:20:24.982Z,15.50
2017-09-23T23:22:53.087Z,15.50
2017-09-23T23:25:21.235Z,15.50
2017-09-23T23:27:50.171Z,15.50
2017-09-23T23:30:19.109Z,15.50
2017-09-23T23:32:47.251Z,15.50
2017-09-23T23:35:15.372Z,15.50
2017-09-23T23:37:43.600Z,15.40
2017-09-23T23:40:11.724Z,15.50
2017-09-23T23:42:39.826Z,15.50
2017-09-23T23:45:07.971Z,15.50
2017-09-23T23:47:36.104Z,15.50
2017-09-23T23:50:04.367Z,15.50
2017-09-23T23:52:32.696Z,15.50
2017-09-23T23:55:00.876Z,15.50
2017-09-23T23:57:29.025Z,15.40
2017-09-23T23:59:57.133Z,15.40
